Time;durP1;ratioP1;P1;durP2;ratioP2;P2;SDS_P1;SDS_P2;PMS_P1;PMS_P2;Temp;Humidity;BMP_temperature;BMP_pressure;BME280_temperature;BME280_humidity;BME280_pressure;Samples;Min_cycle;Max_cycle;Signal;HPM_P1;HPM_P2
2023/05/02 00:02:10;;;;;;;11.05;7.93;;;;;;;;;;4903337;29;20076;-57
2023/05/02 00:04:35;;;;;;;13.02;7.53;;;;;;;;;;4901497;29;20028;-55
2023/05/02 00:07:04;;;;;;;14.07;8.65;;;;;;;;;;4902212;29;20061;-56
2023/05/02 00:09:29;;;;;;;11.63;7.90;;;;;;;;;;4900810;29;20040;-55
2023/05/02 00:11:54;;;;;;;13.48;8.50;;;;;;;;;;4900293;29;20043;-57
2023/05/02 00:14:20;;;;;;;10.70;7.82;;;;;;;;;;4900962;29;20033;-56
2023/05/02 00:16:45;;;;;;;11.68;7.85;;;;;;;;;;4905816;29;20040;-57
2023/05/02 00:19:10;;;;;;;10.32;7.60;;;;;;;;;;4903085;29;20043;-56
2023/05/02 00:21:36;;;;;;;14.60;8.70;;;;;;;;;;4902912;29;20083;-57
2023/05/02 00:24:01;;;;;;;14.20;8.48;;;;;;;;;;4902791;29;20040;-54
2023/05/02 00:26:27;;;;;;;13.02;7.53;;;;;;;;;;4902396;29;20060;-56
2023/05/02 00:28:53;;;;;;;12.00;8.20;;;;;;;;;;4905391;29;20578;-59
2023/05/02 00:31:18;;;;;;;14.82;7.95;;;;;;;;;;4904595;29;20466;-60
2023/05/02 00:33:43;;;;;;;9.63;7.15;;;;;;;;;;4898456;29;20110;-59
2023/05/02 00:36:12;;;;;;;12.07;7.50;;;;;;;;;;4907166;29;20036;-55
2023/05/02 00:38:38;;;;;;;10.77;7.75;;;;;;;;;;4896853;29;20035;-53
2023/05/02 00:41:04;;;;;;;11.57;7.65;;;;;;;;;;4904133;29;20028;-56
2023/05/02 00:43:29;;;;;;;10.40;7.30;;;;;;;;;;4899218;29;20493;-55
2023/05/02 00:45:54;;;;;;;9.45;7.05;;;;;;;;;;4903225;29;20024;-56
2023/05/02 00:48:20;;;;;;;9.68;7.35;;;;;;;;;;4899131;29;20028;-58
2023/05/02 00:50:45;;;;;;;9.00;7.00;;;;;;;;;;4900101;29;20032;-56
2023/05/02 00:53:11;;;;;;;8.90;6.85;;;;;;;;;;4900670;29;20036;-59
2023/05/02 00:55:36;;;;;;;9.45;7.20;;;;;;;;;;4891594;29;20098;-53
2023/05/02 00:58:03;;;;;;;11.98;8.07;;;;;;;;;;4904704;29;20036;-56
2023/05/02 01:00:48;;;;;;;12.20;8.27;;;;;;;;;;4891424;29;20028;-57
2023/05/02 01:03:24;;;;;;;10.18;7.60;;;;;;;;;;4899360;29;20542;-58
2023/05/02 01:06:09;;;;;;;13.00;7.35;;;;;;;;;;4901764;29;20648;-56
2023/05/02 01:08:39;;;;;;;12.05;7.07;;;;;;;;;;4900138;29;20139;-58
2023/05/02 01:11:13;;;;;;;10.77;7.97;;;;;;;;;;4891040;29;20044;-57
2023/05/02 01:13:44;;;;;;;10.95;7.93;;;;;;;;;;4897800;29;20133;-58
2023/05/02 01:16:09;;;;;;;;;;;;;;;;;;4903918;29;20517;-54
2023/05/02 01:18:37;;;;;;;12.65;8.15;;;;;;;;;;4904678;29;19915;-53
2023/05/02 01:21:05;;;;;;;12.80;8.50;;;;;;;;;;4896694;29;20064;-54
2023/05/02 01:23:49;;;;;;;12.82;8.85;;;;;;;;;;4901890;29;20032;-56
2023/05/02 01:26:23;;;;;;;11.40;8.02;;;;;;;;;;4903194;29;20119;-56
2023/05/02 01:28:58;;;;;;;12.63;8.77;;;;;;;;;;4898713;29;20056;-59
2023/05/02 01:31:24;;;;;;;10.95;8.18;;;;;;;;;;4905939;29;20051;-54
2023/05/02 01:33:50;;;;;;;11.98;8.05;;;;;;;;;;4900533;29;20048;-59
2023/05/02 01:36:16;;;;;;;13.18;9.25;;;;;;;;;;4888928;29;20044;-55
2023/05/02 01:38:42;;;;;;;13.23;9.07;;;;;;;;;;4889941;29;20658;-56
2023/05/02 01:41:08;;;;;;;14.02;8.63;;;;;;;;;;4901715;29;20371;-57
2023/05/02 01:43:34;;;;;;;13.48;8.63;;;;;;;;;;4891959;29;20497;-55
2023/05/02 01:46:01;;;;;;;11.05;8.45;;;;;;;;;;4901305;29;20060;-54
2023/05/02 01:48:27;;;;;;;12.50;8.60;;;;;;;;;;4888104;29;20044;-55
2023/05/02 01:50:53;;;;;;;12.10;8.70;;;;;;;;;;4901291;29;20044;-56
2023/05/02 01:53:21;;;;;;;12.50;8.20;;;;;;;;;;4903687;29;20028;-58
2023/05/02 01:55:47;;;;;;;12.13;8.23;;;;;;;;;;4902853;29;20064;-56
2023/05/02 01:58:14;;;;;;;11.43;8.00;;;;;;;;;;4906788;29;20064;-57
2023/05/02 02:00:40;;;;;;;12.13;8.25;;;;;;;;;;4904630;29;20055;-57
2023/05/02 02:03:06;;;;;;;12.73;8.87;;;;;;;;;;4905249;29;20028;-56
2023/05/02 02:05:32;;;;;;;10.90;7.90;;;;;;;;;;4893848;29;20279;-57
2023/05/02 02:07:58;;;;;;;10.43;7.70;;;;;;;;;;4903295;29;20035;-56
2023/05/02 02:10:25;;;;;;;10.73;7.80;;;;;;;;;;4903381;29;20320;-57
2023/05/02 02:12:52;;;;;;;10.55;7.97;;;;;;;;;;4891108;29;20943;-54
2023/05/02 02:15:19;;;;;;;9.73;7.60;;;;;;;;;;4901671;29;20061;-58
2023/05/02 02:17:54;;;;;;;11.68;7.97;;;;;;;;;;4906022;29;20147;-54
2023/05/02 02:20:20;;;;;;;11.43;7.97;;;;;;;;;;4903495;29;20486;-55
2023/05/02 02:22:46;;;;;;;10.80;7.90;;;;;;;;;;4902904;29;20119;-53
2023/05/02 02:25:13;;;;;;;11.57;8.30;;;;;;;;;;4903152;29;20071;-54
2023/05/02 02:27:40;;;;;;;14.20;7.72;;;;;;;;;;4877071;29;20056;-51
2023/05/02 02:30:07;;;;;;;10.73;7.90;;;;;;;;;;4903775;29;20028;-57
2023/05/02 02:32:32;;;;;;;11.40;7.72;;;;;;;;;;4905246;29;20032;-53
2023/05/02 02:34:58;;;;;;;11.93;7.78;;;;;;;;;;4907550;29;20043;-56
2023/05/02 02:37:30;;;;;;;12.63;8.00;;;;;;;;;;4907292;29;20115;-55
2023/05/02 02:40:05;;;;;;;11.95;8.07;;;;;;;;;;4906595;29;20119;-64
2023/05/02 02:42:42;;;;;;;11.90;8.02;;;;;;;;;;4903447;29;20036;-56
2023/05/02 02:45:08;;;;;;;11.88;8.25;;;;;;;;;;4905201;29;20422;-57
2023/05/02 02:47:42;;;;;;;11.18;8.00;;;;;;;;;;4904929;29;20869;-51
2023/05/02 02:50:10;;;;;;;10.40;8.13;;;;;;;;;;4906425;29;20075;-57
2023/05/02 02:52:44;;;;;;;11.02;7.57;;;;;;;;;;4902614;29;20434;-55
2023/05/02 02:55:28;;;;;;;10.73;8.00;;;;;;;;;;4902242;29;20133;-55
2023/05/02 02:58:20;;;;;;;11.75;8.70;;;;;;;;;;4886097;29;20737;-54
2023/05/02 03:00:45;;;;;;;10.68;8.10;;;;;;;;;;4885787;29;20111;-55
2023/05/02 03:03:13;;;;;;;12.18;7.88;;;;;;;;;;4903339;29;20032;-55
2023/05/02 03:05:38;;;;;;;14.27;9.38;;;;;;;;;;4910042;29;20036;-56
2023/05/02 03:08:03;;;;;;;12.13;8.70;;;;;;;;;;4902676;29;20044;-56
2023/05/02 03:10:29;;;;;;;14.20;9.27;;;;;;;;;;4902506;29;20067;-55
2023/05/02 03:12:54;;;;;;;13.68;9.77;;;;;;;;;;4905949;29;20032;-56
2023/05/02 03:15:54;;;;;;;13.63;9.53;;;;;;;;;;4904092;29;20039;-59
2023/05/02 03:18:25;;;;;;;12.95;8.70;;;;;;;;;;4869886;29;20088;-59
2023/05/02 03:20:52;;;;;;;12.70;8.90;;;;;;;;;;4904788;29;20063;-54
2023/05/02 03:23:18;;;;;;;13.95;9.38;;;;;;;;;;4904775;29;20051;-56
2023/05/02 03:25:43;;;;;;;13.40;9.32;;;;;;;;;;4909121;29;20768;-57
2023/05/02 03:28:12;;;;;;;16.33;10.77;;;;;;;;;;4905191;29;20047;-55
2023/05/02 03:30:41;;;;;;;15.65;10.23;;;;;;;;;;4902940;29;20032;-53
2023/05/02 03:33:07;;;;;;;19.63;11.83;;;;;;;;;;4908268;29;20037;-54
2023/05/02 03:35:33;;;;;;;17.37;10.47;;;;;;;;;;4904395;29;20312;-56
2023/05/02 03:37:59;;;;;;;16.38;10.57;;;;;;;;;;4901685;29;20083;-57
2023/05/02 03:40:26;;;;;;;14.80;9.68;;;;;;;;;;4906808;29;20035;-58
2023/05/02 03:42:52;;;;;;;;;;;;;;;;;;4906242;29;20028;-53
2023/05/02 03:45:24;;;;;;;12.55;8.73;;;;;;;;;;4902901;29;20296;-56
2023/05/02 03:47:51;;;;;;;14.18;8.82;;;;;;;;;;4898799;29;20045;-52
2023/05/02 03:50:17;;;;;;;14.23;9.88;;;;;;;;;;4904332;29;20032;-54
2023/05/02 03:52:45;;;;;;;14.38;9.95;;;;;;;;;;4906827;29;20032;-55
2023/05/02 03:55:11;;;;;;;14.80;9.13;;;;;;;;;;4902037;29;20052;-58
2023/05/02 03:57:37;;;;;;;13.30;8.93;;;;;;;;;;4904212;29;20115;-53
2023/05/02 04:00:04;;;;;;;13.05;9.10;;;;;;;;;;4892654;29;20564;-50
2023/05/02 04:02:36;;;;;;;14.93;8.93;;;;;;;;;;4891069;29;20040;-54
2023/05/02 04:05:03;;;;;;;11.40;8.63;;;;;;;;;;4890932;29;20076;-56
2023/05/02 04:07:29;;;;;;;11.40;8.48;;;;;;;;;;4903001;29;20076;-54
2023/05/02 04:10:01;;;;;;;10.93;8.35;;;;;;;;;;4890246;29;20121;-56
2023/05/02 04:12:28;;;;;;;12.02;8.75;;;;;;;;;;4899137;29;20043;-56
2023/05/02 04:14:54;;;;;;;18.38;10.23;;;;;;;;;;4901703;29;20065;-57
2023/05/02 04:17:24;;;;;;;12.65;9.18;;;;;;;;;;4901593;29;20475;-56
2023/05/02 04:19:51;;;;;;;16.13;9.98;;;;;;;;;;4900138;29;20039;-59
2023/05/02 04:22:17;;;;;;;14.40;9.20;;;;;;;;;;4905878;29;20079;-57
2023/05/02 04:24:48;;;;;;;12.50;9.40;;;;;;;;;;4895616;29;20046;-56
2023/05/02 04:27:14;;;;;;;14.25;9.90;;;;;;;;;;4902132;29;20048;-58
2023/05/02 04:29:39;;;;;;;14.65;9.77;;;;;;;;;;4898584;29;20435;-54
2023/05/02 04:32:05;;;;;;;14.45;9.85;;;;;;;;;;4883091;29;20035;-57
2023/05/02 04:34:31;;;;;;;14.50;10.57;;;;;;;;;;4882240;29;20048;-55
2023/05/02 04:36:57;;;;;;;16.30;10.70;;;;;;;;;;4888665;29;20636;-55
2023/05/02 04:39:24;;;;;;;15.30;9.95;;;;;;;;;;4887559;29;20486;-55
2023/05/02 04:42:00;;;;;;;14.07;10.37;;;;;;;;;;4892750;29;20349;-52
2023/05/02 04:44:27;;;;;;;16.45;11.18;;;;;;;;;;4903813;29;20036;-54
2023/05/02 04:46:54;;;;;;;18.83;11.77;;;;;;;;;;4899983;29;20143;-54
2023/05/02 04:49:19;;;;;;;17.95;11.57;;;;;;;;;;4883433;29;20115;-56
2023/05/02 04:51:45;;;;;;;15.82;11.02;;;;;;;;;;4905390;29;20048;-57
2023/05/02 04:54:11;;;;;;;13.93;10.10;;;;;;;;;;4891510;29;20051;-55
2023/05/02 04:56:37;;;;;;;13.73;9.95;;;;;;;;;;4904305;29;20027;-55
2023/05/02 04:59:03;;;;;;;14.65;9.73;;;;;;;;;;4889189;29;20129;-55
2023/05/02 05:01:30;;;;;;;14.60;10.00;;;;;;;;;;4903064;29;20087;-53
2023/05/02 05:03:56;;;;;;;15.05;9.40;;;;;;;;;;4897621;29;20510;-54
2023/05/02 05:06:21;;;;;;;11.55;9.27;;;;;;;;;;4901602;29;20119;-56
2023/05/02 05:08:47;;;;;;;14.20;9.90;;;;;;;;;;4898890;29;20456;-58
2023/05/02 05:11:17;;;;;;;13.43;8.70;;;;;;;;;;4880301;29;20055;-57
2023/05/02 05:13:42;;;;;;;11.65;9.25;;;;;;;;;;4884941;29;20054;-53
2023/05/02 05:16:09;;;;;;;15.63;9.23;;;;;;;;;;4883520;29;20037;-57
2023/05/02 05:18:39;;;;;;;15.70;10.75;;;;;;;;;;4902533;29;20056;-59
2023/05/02 05:21:06;;;;;;;15.65;11.10;;;;;;;;;;4899636;29;20028;-55
2023/05/02 05:23:31;;;;;;;14.52;11.00;;;;;;;;;;4899850;29;20118;-57
2023/05/02 05:25:58;;;;;;;15.90;11.43;;;;;;;;;;4869874;29;20116;-58
2023/05/02 05:28:23;;;;;;;15.82;9.98;;;;;;;;;;4903314;29;20458;-55
2023/05/02 05:30:48;;;;;;;13.82;9.32;;;;;;;;;;4904256;29;20036;-55
2023/05/02 05:33:18;;;;;;;17.13;11.15;;;;;;;;;;4908474;29;20050;-57
2023/05/02 05:35:44;;;;;;;17.08;11.02;;;;;;;;;;4910404;29;20400;-59
2023/05/02 05:38:10;;;;;;;14.70;11.02;;;;;;;;;;4904681;29;20052;-57
2023/05/02 05:40:37;;;;;;;;;;;;;;;;;;4893860;29;20438;-56
2023/05/02 05:43:03;;;;;;;14.50;10.90;;;;;;;;;;4904964;29;20353;-56
2023/05/02 05:45:33;;;;;;;14.43;10.95;;;;;;;;;;4906716;29;20059;-54
2023/05/02 05:47:58;;;;;;;15.40;11.15;;;;;;;;;;4906768;29;20177;-54
2023/05/02 05:50:26;;;;;;;16.80;11.32;;;;;;;;;;4906522;29;20526;-55
2023/05/02 05:52:51;;;;;;;18.13;10.40;;;;;;;;;;4910480;29;20067;-54
2023/05/02 05:55:17;;;;;;;12.63;9.40;;;;;;;;;;4909478;29;20322;-54
2023/05/02 05:57:42;;;;;;;15.60;10.55;;;;;;;;;;4908130;29;20067;-57
2023/05/02 06:00:09;;;;;;;14.43;9.88;;;;;;;;;;4905929;29;20445;-56
2023/05/02 06:02:41;;;;;;;13.00;9.57;;;;;;;;;;4909236;29;20510;-53
2023/05/02 06:05:08;;;;;;;13.55;9.32;;;;;;;;;;4909275;29;20036;-57
2023/05/02 06:07:33;;;;;;;16.02;9.13;;;;;;;;;;4908842;29;20040;-58
2023/05/02 06:09:58;;;;;;;12.52;8.70;;;;;;;;;;4906316;29;20478;-58
2023/05/02 06:12:25;;;;;;;12.13;8.93;;;;;;;;;;4891172;29;20040;-56
2023/05/02 06:14:51;;;;;;;14.73;9.93;;;;;;;;;;4907289;29;20043;-58
2023/05/02 06:17:17;;;;;;;18.20;9.88;;;;;;;;;;4895428;29;20410;-56
2023/05/02 06:19:42;;;;;;;12.60;9.38;;;;;;;;;;4907556;29;20091;-57
2023/05/02 06:22:10;;;;;;;15.93;10.63;;;;;;;;;;4912633;29;20046;-55
2023/05/02 06:24:36;;;;;;;13.85;10.02;;;;;;;;;;4889708;29;20520;-56
2023/05/02 06:27:02;;;;;;;14.18;10.85;;;;;;;;;;4891332;29;20052;-57
2023/05/02 06:29:27;;;;;;;16.98;11.40;;;;;;;;;;4889592;29;20471;-55
2023/05/02 06:31:54;;;;;;;13.48;10.65;;;;;;;;;;4891580;29;20029;-56
2023/05/02 06:34:19;;;;;;;13.55;10.75;;;;;;;;;;4876432;29;20032;-55
2023/05/02 06:36:44;;;;;;;17.25;11.07;;;;;;;;;;4890202;29;20040;-57
2023/05/02 06:39:10;;;;;;;13.35;10.60;;;;;;;;;;4891540;29;20124;-60
2023/05/02 06:41:35;;;;;;;13.63;10.25;;;;;;;;;;4886116;29;20139;-58
2023/05/02 06:44:01;;;;;;;12.00;9.20;;;;;;;;;;4884535;29;20421;-56
2023/05/02 06:46:30;;;;;;;13.85;9.77;;;;;;;;;;4874383;29;20025;-56
2023/05/02 06:48:55;;;;;;;11.77;9.48;;;;;;;;;;4883199;29;20127;-57
2023/05/02 06:51:21;;;;;;;12.07;8.20;;;;;;;;;;4885782;29;20409;-56
2023/05/02 06:53:46;;;;;;;11.02;8.68;;;;;;;;;;4884426;29;20352;-54
2023/05/02 06:56:12;;;;;;;10.43;8.35;;;;;;;;;;4883477;29;20040;-55
2023/05/02 06:58:37;;;;;;;11.35;8.77;;;;;;;;;;4888857;29;20031;-57
2023/05/02 07:01:02;;;;;;;10.77;8.50;;;;;;;;;;4889027;29;20024;-57
2023/05/02 07:03:28;;;;;;;13.10;8.68;;;;;;;;;;4885348;29;20060;-57
2023/05/02 07:05:53;;;;;;;11.63;8.70;;;;;;;;;;4885042;29;20065;-58
2023/05/02 07:08:20;;;;;;;11.13;8.07;;;;;;;;;;4885966;29;20261;-58
2023/05/02 07:10:45;;;;;;;10.82;7.88;;;;;;;;;;4883991;29;20404;-56
2023/05/02 07:13:11;;;;;;;13.55;8.48;;;;;;;;;;4887538;29;20047;-54
2023/05/02 07:15:36;;;;;;;12.27;9.10;;;;;;;;;;4885759;29;20036;-54
2023/05/02 07:18:01;;;;;;;11.77;8.98;;;;;;;;;;4883605;29;20041;-52
2023/05/02 07:20:26;;;;;;;11.38;8.95;;;;;;;;;;4884873;29;20228;-58
2023/05/02 07:22:52;;;;;;;13.32;8.77;;;;;;;;;;4888934;29;20512;-58
2023/05/02 07:25:17;;;;;;;10.57;8.27;;;;;;;;;;4866117;29;20036;-57
2023/05/02 07:27:43;;;;;;;14.75;9.30;;;;;;;;;;4883691;29;20457;-56
2023/05/02 07:30:08;;;;;;;12.68;8.27;;;;;;;;;;4882945;29;20483;-58
2023/05/02 07:32:33;;;;;;;11.23;8.38;;;;;;;;;;4884343;29;20534;-59
2023/05/02 07:34:59;;;;;;;10.82;7.97;;;;;;;;;;4887360;29;20051;-58
2023/05/02 07:37:24;;;;;;;11.93;7.80;;;;;;;;;;4891026;29;20041;-55
2023/05/02 07:39:49;;;;;;;11.48;7.90;;;;;;;;;;4883875;29;20143;-55
2023/05/02 07:42:15;;;;;;;12.27;8.50;;;;;;;;;;4886408;29;20064;-56
2023/05/02 07:44:40;;;;;;;9.85;7.80;;;;;;;;;;4885737;29;20036;-57
2023/05/02 07:47:07;;;;;;;15.25;9.68;;;;;;;;;;4888313;29;20047;-53
2023/05/02 07:49:32;;;;;;;12.43;8.67;;;;;;;;;;4886190;29;20033;-59
2023/05/02 07:51:57;;;;;;;11.57;8.13;;;;;;;;;;4885552;29;20031;-56
2023/05/02 07:54:25;;;;;;;12.23;8.02;;;;;;;;;;4882730;29;20092;-55
2023/05/02 07:56:50;;;;;;;13.40;9.15;;;;;;;;;;4882202;29;20045;-58
2023/05/02 07:59:15;;;;;;;14.25;8.85;;;;;;;;;;4884078;29;20240;-59
2023/05/02 08:01:41;;;;;;;13.65;9.70;;;;;;;;;;4883468;29;20036;-57
2023/05/02 08:04:07;;;;;;;12.23;9.02;;;;;;;;;;4863296;29;20040;-56
2023/05/02 08:06:33;;;;;;;11.15;8.98;;;;;;;;;;4880071;29;20047;-55
2023/05/02 08:08:58;;;;;;;11.57;9.25;;;;;;;;;;4883915;29;20634;-58
2023/05/02 08:11:24;;;;;;;17.02;9.80;;;;;;;;;;4880385;29;20483;-58
2023/05/02 08:13:50;;;;;;;13.50;9.48;;;;;;;;;;4883000;29;20029;-57
2023/05/02 08:16:15;;;;;;;13.52;9.75;;;;;;;;;;4883305;29;20197;-55
2023/05/02 08:18:41;;;;;;;14.50;9.60;;;;;;;;;;4882351;29;20052;-59
2023/05/02 08:21:07;;;;;;;16.10;9.57;;;;;;;;;;4883877;29;20036;-54
2023/05/02 08:23:32;;;;;;;14.55;10.13;;;;;;;;;;4882820;29;20041;-54
2023/05/02 08:25:58;;;;;;;12.63;9.50;;;;;;;;;;4884339;29;20036;-57
2023/05/02 08:28:23;;;;;;;13.02;9.02;;;;;;;;;;4882572;29;20128;-54
2023/05/02 08:30:48;;;;;;;19.48;10.23;;;;;;;;;;4883272;29;20029;-56
2023/05/02 08:33:14;;;;;;;13.60;10.25;;;;;;;;;;4883269;29;20037;-55
2023/05/02 08:35:39;;;;;;;16.33;10.13;;;;;;;;;;4881830;29;20029;-59
2023/05/02 08:38:05;;;;;;;15.93;9.82;;;;;;;;;;4883082;29;20040;-56
2023/05/02 08:40:32;;;;;;;11.75;10.32;;;;;;;;;;4879846;29;20028;-56
2023/05/02 08:42:57;;;;;;;13.73;10.75;;;;;;;;;;4883225;29;20319;-58
2023/05/02 08:45:23;;;;;;;15.68;10.80;;;;;;;;;;4885095;29;20037;-54
2023/05/02 08:47:49;;;;;;;16.52;10.43;;;;;;;;;;4881218;29;20048;-55
2023/05/02 08:50:16;;;;;;;15.93;10.38;;;;;;;;;;4884405;29;20037;-55
2023/05/02 08:52:43;;;;;;;13.77;10.68;;;;;;;;;;4885285;29;20483;-57
2023/05/02 08:55:08;;;;;;;15.23;10.82;;;;;;;;;;4880505;29;20040;-58
2023/05/02 08:57:34;;;;;;;15.35;11.57;;;;;;;;;;4880622;29;20041;-58
2023/05/02 08:59:59;;;;;;;17.52;10.57;;;;;;;;;;4884146;29;20033;-55
2023/05/02 09:02:38;;;;;;;13.65;10.20;;;;;;;;;;4885214;29;20039;-58
2023/05/02 09:05:06;;;;;;;12.95;9.93;;;;;;;;;;4882850;29;20446;-57
2023/05/02 09:07:46;;;;;;;14.55;10.32;;;;;;;;;;4883172;29;20043;-55
2023/05/02 09:10:11;;;;;;;15.57;10.23;;;;;;;;;;4883072;29;20069;-54
2023/05/02 09:12:37;;;;;;;15.20;10.77;;;;;;;;;;4883340;29;20095;-56
2023/05/02 09:15:08;;;;;;;14.23;10.80;;;;;;;;;;4884450;29;20036;-57
2023/05/02 09:17:43;;;;;;;13.73;11.20;;;;;;;;;;4868151;29;20044;-55
2023/05/02 09:20:10;;;;;;;12.35;10.02;;;;;;;;;;4882243;29;20167;-58
2023/05/02 09:22:36;;;;;;;14.60;10.65;;;;;;;;;;4884929;29;20399;-58
2023/05/02 09:25:01;;;;;;;17.30;11.85;;;;;;;;;;4879561;29;20044;-58
2023/05/02 09:27:26;;;;;;;14.32;11.02;;;;;;;;;;4882090;29;20045;-57
2023/05/02 09:30:12;;;;;;;20.58;10.95;;;;;;;;;;4880664;29;20032;-56
2023/05/02 09:32:44;;;;;;;19.95;11.55;;;;;;;;;;4883269;29;20033;-56
2023/05/02 09:35:10;;;;;;;16.48;12.73;;;;;;;;;;4883297;29;20033;-55
2023/05/02 09:37:35;;;;;;;15.90;12.13;;;;;;;;;;4880919;29;20063;-56
2023/05/02 09:40:05;;;;;;;15.50;11.68;;;;;;;;;;4881517;29;20099;-57
2023/05/02 09:42:30;;;;;;;15.35;11.80;;;;;;;;;;4882438;29;20040;-54
2023/05/02 09:44:55;;;;;;;16.92;12.63;;;;;;;;;;4881085;29;20036;-58
2023/05/02 09:47:25;;;;;;;18.25;12.35;;;;;;;;;;4881714;29;20597;-59
2023/05/02 09:49:51;;;;;;;17.02;12.65;;;;;;;;;;4880605;29;20025;-57
2023/05/02 09:52:18;;;;;;;16.95;12.93;;;;;;;;;;4882688;29;20028;-57
2023/05/02 09:54:45;;;;;;;16.65;12.18;;;;;;;;;;4884716;29;20088;-58
2023/05/02 09:57:11;;;;;;;;;;;;;;;;;;4886244;29;20554;-55
2023/05/02 09:59:37;;;;;;;16.87;12.90;;;;;;;;;;4883604;29;19915;-56
2023/05/02 10:02:03;;;;;;;16.33;12.63;;;;;;;;;;4879075;29;20459;-54
2023/05/02 10:04:30;;;;;;;17.45;12.75;;;;;;;;;;4882856;29;20483;-53
2023/05/02 10:06:56;;;;;;;14.98;11.88;;;;;;;;;;4863119;29;20105;-56
2023/05/02 10:09:21;;;;;;;15.03;12.27;;;;;;;;;;4883943;29;20335;-54
2023/05/02 10:11:50;;;;;;;16.33;11.63;;;;;;;;;;4883458;29;20490;-56
2023/05/02 10:14:17;;;;;;;20.13;13.10;;;;;;;;;;4882923;29;20028;-58
2023/05/02 10:16:55;;;;;;;20.40;13.70;;;;;;;;;;4880034;29;20463;-55
2023/05/02 10:19:25;;;;;;;16.98;12.60;;;;;;;;;;4882734;29;20052;-56
2023/05/02 10:21:52;;;;;;;17.10;12.15;;;;;;;;;;4886305;29;20036;-57
2023/05/02 10:24:17;;;;;;;15.27;12.57;;;;;;;;;;4886406;29;20029;-54
2023/05/02 10:26:43;;;;;;;15.77;12.57;;;;;;;;;;4886251;29;20091;-51
2023/05/02 10:29:09;;;;;;;18.50;13.10;;;;;;;;;;4888344;29;20036;-54
2023/05/02 10:31:36;;;;;;;15.68;13.02;;;;;;;;;;4886454;29;20036;-56
2023/05/02 10:34:01;;;;;;;;;;;;;;;;;;4887131;29;20115;-55
2023/05/02 10:36:27;;;;;;;16.23;12.27;;;;;;;;;;4887400;29;20221;-54
2023/05/02 10:38:53;;;;;;;14.15;11.43;;;;;;;;;;4885779;29;20128;-56
2023/05/02 10:41:21;;;;;;;17.25;13.02;;;;;;;;;;4885310;29;20051;-56
2023/05/02 10:43:47;;;;;;;16.67;12.45;;;;;;;;;;4886242;29;20041;-56
2023/05/02 10:46:40;;;;;;;18.60;11.65;;;;;;;;;;4886141;29;20025;-57
2023/05/02 10:49:09;;;;;;;15.45;12.38;;;;;;;;;;4882077;29;20881;-57
2023/05/02 10:51:35;;;;;;;15.52;12.57;;;;;;;;;;4882240;29;20152;-57
2023/05/02 10:54:15;;;;;;;17.47;12.10;;;;;;;;;;4881792;29;20041;-58
2023/05/02 10:57:02;;;;;;;17.95;11.65;;;;;;;;;;4884312;29;20033;-55
2023/05/02 10:59:29;;;;;;;13.77;10.55;;;;;;;;;;4884617;29;20407;-53
2023/05/02 11:01:55;;;;;;;14.82;11.02;;;;;;;;;;4885505;29;20038;-60
2023/05/02 11:04:20;;;;;;;13.23;10.85;;;;;;;;;;4885496;29;20039;-54
2023/05/02 11:06:58;;;;;;;16.65;10.65;;;;;;;;;;4886554;29;20697;-55
2023/05/02 11:09:23;;;;;;;16.02;11.90;;;;;;;;;;4885173;29;20040;-57
2023/05/02 11:11:49;;;;;;;19.13;12.40;;;;;;;;;;4885073;29;20036;-59
2023/05/02 11:14:41;;;;;;;17.43;12.00;;;;;;;;;;4881986;29;20037;-56
2023/05/02 11:17:09;;;;;;;18.20;11.85;;;;;;;;;;4869556;29;20350;-57
2023/05/02 11:19:35;;;;;;;16.20;12.52;;;;;;;;;;4884707;29;20415;-55
2023/05/02 11:22:19;;;;;;;16.48;11.70;;;;;;;;;;4882768;29;20037;-58
2023/05/02 11:24:48;;;;;;;19.00;11.82;;;;;;;;;;4883453;29;20570;-57
2023/05/02 11:27:28;;;;;;;18.73;12.73;;;;;;;;;;4885073;29;20040;-57
2023/05/02 11:29:54;;;;;;;16.98;11.95;;;;;;;;;;4882343;29;20380;-51
2023/05/02 11:32:21;;;;;;;16.20;12.43;;;;;;;;;;4882443;29;20331;-55
2023/05/02 11:34:49;;;;;;;14.70;11.57;;;;;;;;;;4885062;29;20036;-57
2023/05/02 11:37:15;;;;;;;17.75;11.82;;;;;;;;;;4874194;29;20510;-53
2023/05/02 11:39:40;;;;;;;15.02;11.30;;;;;;;;;;4885310;29;20076;-55
2023/05/02 11:42:06;;;;;;;16.77;12.52;;;;;;;;;;4885281;29;20037;-55
2023/05/02 11:44:31;;;;;;;19.48;13.70;;;;;;;;;;4881809;29;20047;-56
2023/05/02 11:46:56;;;;;;;18.83;13.93;;;;;;;;;;4883703;29;20071;-55
2023/05/02 11:49:22;;;;;;;19.20;13.55;;;;;;;;;;4886065;29;20036;-53
2023/05/02 11:51:47;;;;;;;19.30;13.88;;;;;;;;;;4887854;29;20032;-53
2023/05/02 11:54:19;;;;;;;20.60;13.52;;;;;;;;;;4884367;29;20043;-57
2023/05/02 11:56:45;;;;;;;14.80;11.65;;;;;;;;;;4868335;29;20496;-53
2023/05/02 11:59:10;;;;;;;17.23;9.93;;;;;;;;;;4885607;29;20032;-54
2023/05/02 12:01:35;;;;;;;13.82;9.18;;;;;;;;;;4885707;29;20029;-56
2023/05/02 12:04:05;;;;;;;13.73;9.45;;;;;;;;;;4888012;29;20021;-53
2023/05/02 12:06:31;;;;;;;12.50;9.82;;;;;;;;;;4883671;29;20574;-56
2023/05/02 12:09:06;;;;;;;12.75;9.25;;;;;;;;;;4884359;29;20041;-56
2023/05/02 12:11:32;;;;;;;12.68;10.57;;;;;;;;;;4883906;29;20032;-58
2023/05/02 12:13:57;;;;;;;17.50;11.50;;;;;;;;;;4882981;29;20481;-55
2023/05/02 12:16:23;;;;;;;16.02;12.48;;;;;;;;;;4884823;29;20029;-60
2023/05/02 12:18:48;;;;;;;19.90;13.77;;;;;;;;;;4884046;29;20040;-54
2023/05/02 12:21:14;;;;;;;16.88;12.65;;;;;;;;;;4882695;29;20041;-60
2023/05/02 12:23:40;;;;;;;19.17;13.23;;;;;;;;;;4884683;29;20033;-56
2023/05/02 12:26:20;;;;;;;17.50;13.35;;;;;;;;;;4885426;29;20020;-57
2023/05/02 12:28:53;;;;;;;17.92;13.25;;;;;;;;;;4885125;29;20071;-58
2023/05/02 12:31:18;;;;;;;21.50;16.85;;;;;;;;;;4888156;29;20478;-58
2023/05/02 12:33:46;;;;;;;20.88;16.25;;;;;;;;;;4887052;29;20044;-55
2023/05/02 12:36:12;;;;;;;24.67;18.20;;;;;;;;;;4884882;29;20051;-52
2023/05/02 12:38:37;;;;;;;22.73;17.52;;;;;;;;;;4884961;29;20036;-57
2023/05/02 12:41:02;;;;;;;26.90;19.63;;;;;;;;;;4883343;29;20121;-55
2023/05/02 12:43:41;;;;;;;27.85;19.77;;;;;;;;;;4881710;29;20035;-55
2023/05/02 12:46:10;;;;;;;24.67;19.10;;;;;;;;;;4882796;29;20037;-55
2023/05/02 12:48:35;;;;;;;24.75;17.73;;;;;;;;;;4881713;29;20106;-53
2023/05/02 12:51:00;;;;;;;19.58;13.32;;;;;;;;;;4886606;29;20034;-58
2023/05/02 12:53:39;;;;;;;20.38;12.95;;;;;;;;;;4864824;29;20044;-55
2023/05/02 12:56:05;;;;;;;17.95;12.23;;;;;;;;;;4885695;29;20726;-51
2023/05/02 12:58:38;;;;;;;20.13;13.57;;;;;;;;;;4884239;29;20035;-54
2023/05/02 13:01:06;;;;;;;16.33;11.48;;;;;;;;;;4883359;29;20514;-57
2023/05/02 13:03:31;;;;;;;20.27;14.05;;;;;;;;;;4884755;29;20060;-55
2023/05/02 13:05:56;;;;;;;16.60;12.85;;;;;;;;;;4883667;29;20095;-56
2023/05/02 13:08:22;;;;;;;16.13;12.10;;;;;;;;;;4883087;29;20045;-53
2023/05/02 13:10:47;;;;;;;16.77;11.90;;;;;;;;;;4881022;29;20059;-56
2023/05/02 13:13:13;;;;;;;15.98;12.00;;;;;;;;;;4885180;29;20028;-56
2023/05/02 13:15:38;;;;;;;16.85;12.27;;;;;;;;;;4885777;29;20041;-56
2023/05/02 13:18:03;;;;;;;14.60;10.90;;;;;;;;;;4884896;29;20402;-56
2023/05/02 13:20:29;;;;;;;13.70;9.48;;;;;;;;;;4883200;29;20074;-55
2023/05/02 13:22:54;;;;;;;12.75;9.50;;;;;;;;;;4882705;29;20107;-52
2023/05/02 13:25:19;;;;;;;11.32;7.93;;;;;;;;;;4884370;29;20384;-60
2023/05/02 13:27:45;;;;;;;17.95;10.15;;;;;;;;;;4882796;29;20099;-55
2023/05/02 13:30:10;;;;;;;15.80;11.25;;;;;;;;;;4884240;29;20040;-56
2023/05/02 13:32:36;;;;;;;13.15;9.63;;;;;;;;;;4883590;29;20024;-56
2023/05/02 13:35:02;;;;;;;12.88;8.88;;;;;;;;;;4886008;29;20432;-56
2023/05/02 13:37:28;;;;;;;19.08;9.15;;;;;;;;;;4883443;29;20028;-58
2023/05/02 13:39:53;;;;;;;14.30;9.32;;;;;;;;;;4881691;29;20091;-57
2023/05/02 13:42:18;;;;;;;14.60;9.45;;;;;;;;;;4883036;29;20084;-56
2023/05/02 13:44:44;;;;;;;11.27;8.25;;;;;;;;;;4885071;29;20117;-57
2023/05/02 13:47:09;;;;;;;12.18;7.85;;;;;;;;;;4880585;29;20036;-55
2023/05/02 13:49:34;;;;;;;9.02;7.05;;;;;;;;;;4882892;29;20037;-57
2023/05/02 13:51:59;;;;;;;10.98;7.35;;;;;;;;;;4883880;29;20033;-53
2023/05/02 13:54:25;;;;;;;10.75;7.32;;;;;;;;;;4888627;29;20448;-57
2023/05/02 13:56:50;;;;;;;11.07;6.77;;;;;;;;;;4887792;29;20041;-56
2023/05/02 13:59:16;;;;;;;8.68;6.53;;;;;;;;;;4888177;29;20044;-53
2023/05/02 14:01:41;;;;;;;8.73;5.87;;;;;;;;;;4887682;29;20123;-54
2023/05/02 14:04:07;;;;;;;8.27;5.93;;;;;;;;;;4888732;29;20040;-56
2023/05/02 14:06:33;;;;;;;9.43;6.47;;;;;;;;;;4887767;29;20036;-58
2023/05/02 14:08:59;;;;;;;8.27;5.95;;;;;;;;;;4870936;29;20299;-57
2023/05/02 14:11:24;;;;;;;9.00;5.17;;;;;;;;;;4885219;29;20100;-57
2023/05/02 14:13:49;;;;;;;7.97;5.97;;;;;;;;;;4889332;29;20044;-57
2023/05/02 14:16:15;;;;;;;6.37;5.23;;;;;;;;;;4886990;29;20067;-60
2023/05/02 14:18:40;;;;;;;6.23;4.43;;;;;;;;;;4885471;29;20068;-57
2023/05/02 14:21:05;;;;;;;10.63;5.13;;;;;;;;;;4887734;29;20534;-57
2023/05/02 14:23:31;;;;;;;8.90;5.60;;;;;;;;;;4883546;29;20064;-57
2023/05/02 14:25:56;;;;;;;7.57;5.20;;;;;;;;;;4887602;29;20076;-56
2023/05/02 14:28:21;;;;;;;6.60;4.93;;;;;;;;;;4883437;29;20131;-56